createdAt,value
2018-03-02T00:02:08.983Z,48.67
2018-03-02T00:04:39.569Z,46.83
2018-03-02T00:07:09.586Z,48.87
2018-03-02T00:09:39.166Z,47.73
2018-03-02T00:12:10.904Z,48.50
2018-03-02T00:14:40.116Z,49.53
2018-03-02T00:17:10.578Z,54.07
2018-03-02T00:19:40.822Z,49.67
2018-03-02T00:22:10.825Z,50.57
2018-03-02T00:24:40.755Z,51.40
2018-03-02T00:27:11.086Z,46.03
2018-03-02T00:29:39.158Z,47.40
2018-03-02T00:32:07.152Z,46.17
2018-03-02T00:34:40.765Z,50.90
2018-03-02T00:37:10.939Z,56.23
2018-03-02T00:39:38.390Z,50.63
2018-03-02T00:42:09.763Z,50.27
2018-03-02T00:44:40.739Z,54.03
2018-03-02T00:47:08.824Z,47.57
2018-03-02T00:49:38.377Z,55.93
2018-03-02T00:52:10.229Z,45.50
2018-03-02T00:54:38.845Z,50.10
2018-03-02T00:57:07.790Z,49.93
2018-03-02T00:59:39.373Z,57.70
2018-03-02T01:02:07.618Z,49.50
2018-03-02T01:04:36.497Z,50.93
2018-03-02T01:07:06.936Z,49.53
2018-03-02T01:09:36.056Z,50.67
2018-03-02T01:12:08.225Z,59.17
2018-03-02T01:14:40.221Z,53.07
2018-03-02T01:17:09.105Z,48.13
2018-03-02T01:19:38.170Z,46.13
2018-03-02T01:22:10.160Z,49.93
2018-03-02T01:24:39.954Z,47.30
2018-03-02T01:27:09.918Z,50.60
2018-03-02T01:29:37.812Z,51.07
2018-03-02T01:32:09.024Z,45.63
2018-03-02T01:34:37.738Z,43.87
2018-03-02T01:37:09.407Z,47.77
2018-03-02T01:39:39.228Z,44.30
2018-03-02T01:42:07.010Z,48.40
2018-03-02T01:44:39.351Z,42.07
2018-03-02T01:47:07.172Z,50.37
2018-03-02T01:49:37.412Z,56.80
2018-03-02T01:52:09.165Z,51.00
2018-03-02T01:54:39.470Z,45.97
2018-03-02T01:57:07.296Z,48.07
2018-03-02T01:59:39.878Z,44.27
2018-03-02T02:02:10.304Z,48.13
2018-03-02T02:04:39.149Z,46.90
2018-03-02T02:07:08.680Z,44.40
2018-03-02T02:09:40.719Z,47.57
2018-03-02T02:12:09.842Z,50.80
2018-03-02T02:14:40.189Z,47.90
2018-03-02T02:17:10.705Z,50.60
2018-03-02T02:19:41.063Z,45.83
2018-03-02T02:22:10.741Z,48.37
2018-03-02T02:24:40.889Z,44.53
2018-03-02T02:27:10.820Z,41.90
2018-03-02T02:29:39.945Z,51.30
2018-03-02T02:32:09.242Z,46.63
2018-03-02T02:34:39.043Z,49.07
2018-03-02T02:37:09.808Z,50.97
2018-03-02T02:39:40.446Z,50.47
2018-03-02T02:42:10.910Z,44.00
2018-03-02T02:44:40.993Z,44.70
2018-03-02T02:47:10.510Z,47.93
2018-03-02T02:49:40.928Z,44.60
2018-03-02T02:52:10.850Z,46.00
2018-03-02T02:54:41.273Z,53.73
2018-03-02T02:57:11.130Z,47.67
2018-03-02T02:59:40.077Z,65.63
2018-03-02T03:02:10.324Z,49.50
2018-03-02T03:04:41.283Z,48.03
2018-03-02T03:07:11.669Z,46.47
2018-03-02T03:09:41.317Z,48.13
2018-03-02T03:12:11.368Z,47.57
2018-03-02T03:14:41.174Z,46.13
2018-03-02T03:17:10.996Z,51.00
2018-03-02T03:19:40.788Z,52.80
2018-03-02T03:22:10.138Z,45.57
2018-03-02T03:24:40.773Z,52.97
2018-03-02T03:27:11.794Z,52.13
2018-03-02T03:29:41.503Z,49.63
2018-03-02T03:32:10.761Z,50.20
2018-03-02T03:34:40.535Z,52.00
2018-03-02T03:37:10.310Z,48.90
2018-03-02T03:39:40.926Z,50.00
2018-03-02T03:42:11.206Z,49.80
2018-03-02T03:44:40.380Z,45.03
2018-03-02T03:47:11.270Z,49.87
2018-03-02T03:49:40.777Z,53.03
2018-03-02T03:52:11.239Z,55.33
2018-03-02T03:54:41.813Z,45.47
2018-03-02T03:57:12.436Z,50.10
2018-03-02T03:59:41.801Z,48.00
2018-03-02T04:02:11.063Z,54.03
2018-03-02T04:04:41.153Z,50.67
2018-03-02T04:07:10.929Z,51.00
2018-03-02T04:09:40.362Z,48.03
2018-03-02T04:12:10.114Z,52.33
2018-03-02T04:14:40.068Z,45.13
2018-03-02T04:17:10.574Z,49.47
2018-03-02T04:19:40.336Z,48.67
2018-03-02T04:22:10.462Z,42.07
2018-03-02T04:24:38.706Z,46.70
2018-03-02T04:27:09.553Z,50.63
2018-03-02T04:29:40.067Z,48.23
2018-03-02T04:32:10.131Z,45.43
2018-03-02T04:34:41.332Z,47.80
2018-03-02T04:37:11.106Z,47.67
2018-03-02T04:39:41.381Z,47.40
2018-03-02T04:42:10.920Z,47.47
2018-03-02T04:44:41.470Z,55.90
2018-03-02T04:47:10.068Z,43.97
2018-03-02T04:49:39.349Z,46.53
2018-03-02T04:52:10.939Z,47.87
2018-03-02T04:54:40.452Z,47.90
2018-03-02T04:57:10.049Z,41.10
2018-03-02T04:59:40.429Z,49.67
2018-03-02T05:02:10.926Z,45.37
2018-03-02T05:04:40.508Z,43.70
2018-03-02T05:07:10.072Z,51.40
2018-03-02T05:09:38.936Z,43.33
2018-03-02T05:12:10.004Z,52.60
2018-03-02T05:14:40.224Z,44.43
2018-03-02T05:17:10.041Z,49.77
2018-03-02T05:19:41.329Z,54.37
2018-03-02T05:22:10.476Z,52.00
2018-03-02T05:24:38.402Z,54.70
2018-03-02T05:27:08.393Z,48.40
2018-03-02T05:29:38.128Z,49.43
2018-03-02T05:32:08.525Z,50.27
2018-03-02T05:34:40.443Z,52.43
2018-03-02T05:37:10.598Z,66.27
2018-03-02T05:39:40.461Z,48.90
2018-03-02T05:42:11.096Z,46.77
2018-03-02T05:44:41.146Z,48.43
2018-03-02T05:47:11.735Z,48.50
2018-03-02T05:49:41.241Z,51.27
2018-03-02T05:52:10.620Z,50.47
2018-03-02T05:54:40.561Z,47.10
2018-03-02T05:57:11.526Z,50.37
2018-03-02T05:59:41.357Z,55.70
2018-03-02T06:02:11.382Z,56.10
2018-03-02T06:04:41.370Z,40.47
2018-03-02T06:07:11.400Z,48.53
2018-03-02T06:09:41.581Z,47.53
2018-03-02T06:12:11.270Z,53.57
2018-03-02T06:14:43.408Z,51.40
2018-03-02T06:17:12.464Z,46.83
2018-03-02T06:19:41.533Z,49.53
2018-03-02T06:22:11.123Z,50.27
2018-03-02T06:24:41.484Z,50.87
2018-03-02T06:27:11.323Z,51.63
2018-03-02T06:29:41.083Z,49.33
2018-03-02T06:32:10.666Z,49.70
2018-03-02T06:34:40.974Z,52.60
2018-03-02T06:37:11.129Z,53.63
2018-03-02T06:39:40.634Z,51.20
2018-03-02T06:42:10.685Z,50.60
2018-03-02T06:44:41.137Z,45.17
2018-03-02T06:47:10.788Z,49.47
2018-03-02T06:49:43.132Z,49.33
2018-03-02T06:52:13.716Z,42.83
2018-03-02T06:54:41.296Z,54.37
2018-03-02T06:57:11.558Z,45.57
2018-03-02T06:59:42.463Z,53.83
2018-03-02T07:02:18.577Z,46.40
2018-03-02T07:04:46.037Z,47.67
2018-03-02T07:07:13.967Z,43.90
2018-03-02T07:09:42.525Z,46.83
2018-03-02T07:12:13.611Z,49.17
2018-03-02T07:15:35.305Z,49.80
2018-03-02T07:18:12.797Z,57.30
2018-03-02T07:20:45.602Z,54.50
2018-03-02T07:23:13.885Z,54.93
2018-03-02T07:25:43.993Z,49.57
2018-03-02T07:28:19.282Z,56.67
2018-03-02T07:30:47.509Z,63.13
2018-03-02T07:33:15.099Z,45.97
2018-03-02T07:35:43.872Z,50.40
2018-03-02T07:38:13.945Z,53.07
2018-03-02T07:40:44.545Z,51.70
2018-03-02T07:43:17.960Z,48.43
2018-03-02T07:46:07.922Z,43.20
2018-03-02T07:48:43.748Z,49.97
2018-03-02T07:51:13.412Z,47.70
2018-03-02T07:53:42.969Z,58.13
2018-03-02T07:56:13.361Z,58.17
2018-03-02T07:58:42.357Z,54.37
2018-03-02T08:01:13.137Z,54.33
2018-03-02T08:03:43.125Z,50.77
2018-03-02T08:06:11.198Z,51.60
2018-03-02T08:08:41.223Z,50.50
2018-03-02T08:11:11.164Z,49.60
2018-03-02T08:13:41.308Z,61.47
2018-03-02T08:16:11.753Z,54.03
2018-03-02T08:18:42.021Z,60.10
2018-03-02T08:21:12.201Z,54.33
2018-03-02T08:23:41.282Z,52.80
2018-03-02T08:26:11.917Z,48.07
2018-03-02T08:28:39.366Z,57.23
2018-03-02T08:31:10.022Z,53.27
2018-03-02T08:33:39.709Z,53.57
2018-03-02T08:36:10.761Z,55.53
2018-03-02T08:38:41.069Z,47.73
2018-03-02T08:41:08.723Z,51.73
2018-03-02T08:43:38.292Z,60.83
2018-03-02T08:46:08.311Z,51.10
2018-03-02T08:48:38.766Z,55.13
2018-03-02T08:51:08.876Z,51.03
2018-03-02T08:53:39.964Z,51.33
2018-03-02T08:56:11.042Z,57.70
2018-03-02T08:58:39.413Z,51.07
2018-03-02T09:01:22.305Z,54.30
2018-03-02T09:03:50.029Z,61.63
2018-03-02T09:06:17.557Z,50.83
2018-03-02T09:08:44.957Z,57.33
2018-03-02T09:11:12.412Z,47.70
2018-03-02T09:13:40.346Z,56.93
2018-03-02T09:16:12.255Z,53.17
2018-03-02T09:18:42.464Z,46.20
2018-03-02T09:21:35.897Z,63.30
2018-03-02T09:24:21.583Z,42.30
2018-03-02T09:26:50.012Z,59.57
2018-03-02T09:29:17.476Z,59.80
2018-03-02T09:31:50.554Z,49.63
2018-03-02T09:34:18.305Z,43.53
2018-03-02T09:36:45.753Z,58.13
2018-03-02T09:39:13.201Z,57.00
2018-03-02T09:41:45.829Z,53.90
2018-03-02T09:44:15.769Z,55.90
2018-03-02T09:46:43.236Z,54.10
2018-03-02T09:49:10.821Z,51.50
2018-03-02T09:51:39.689Z,49.57
2018-03-02T09:54:09.688Z,56.60
2018-03-02T09:56:37.157Z,46.27
2018-03-02T09:59:14.144Z,56.17
2018-03-02T10:01:42.675Z,54.43
2018-03-02T10:04:10.440Z,54.00
2018-03-02T10:06:39.442Z,49.73
2018-03-02T10:09:10.564Z,63.90
2018-03-02T10:11:43.298Z,50.93
2018-03-02T10:14:12.900Z,43.67
2018-03-02T10:16:41.596Z,51.63
2018-03-02T10:19:10.933Z,60.83
2018-03-02T10:21:41.965Z,50.30
2018-03-02T10:24:20.197Z,60.47
2018-03-02T10:26:47.671Z,47.97
2018-03-02T10:29:15.273Z,51.50
2018-03-02T10:31:42.685Z,62.27
2018-03-02T10:34:11.920Z,53.70
2018-03-02T10:36:42.672Z,61.23
2018-03-02T10:39:13.675Z,58.77
2018-03-02T10:41:44.098Z,50.50
2018-03-02T10:44:14.519Z,48.30
2018-03-02T10:46:43.729Z,55.90
2018-03-02T10:49:13.271Z,54.77
2018-03-02T10:51:42.704Z,51.10
2018-03-02T10:54:33.908Z,54.73
2018-03-02T10:57:11.046Z,56.83
2018-03-02T10:59:43.582Z,59.77
2018-03-02T11:02:26.681Z,52.63
2018-03-02T11:05:04.001Z,61.17
2018-03-02T11:07:40.157Z,53.37
2018-03-02T11:13:06.229Z,58.13
2018-03-02T11:15:38.734Z,60.53
2018-03-02T11:18:06.698Z,53.63
2018-03-02T11:20:35.460Z,57.00
2018-03-02T11:23:04.095Z,54.70
2018-03-02T11:25:34.560Z,61.00
2018-03-02T11:28:02.988Z,59.80
2018-03-02T11:30:32.448Z,56.30
2018-03-02T11:33:01.240Z,49.67
2018-03-02T11:35:29.499Z,54.37
2018-03-02T11:38:00.145Z,54.03
2018-03-02T11:40:30.116Z,55.77
2018-03-02T11:43:01.893Z,54.63
2018-03-02T11:45:31.436Z,54.40
2018-03-02T11:48:00.704Z,53.97
2018-03-02T11:50:30.353Z,52.00
2018-03-02T11:52:58.836Z,52.90
2018-03-02T11:55:29.001Z,56.90
2018-03-02T11:57:57.996Z,61.37
2018-03-02T12:00:28.241Z,55.67
2018-03-02T12:02:58.749Z,55.00
2018-03-02T12:05:29.443Z,53.50
2018-03-02T12:07:59.042Z,61.23
2018-03-02T12:10:30.099Z,53.90
2018-03-02T12:13:02.427Z,56.70
2018-03-02T12:15:34.073Z,63.80
2018-03-02T12:18:04.535Z,61.03
2018-03-02T12:20:35.206Z,58.10
2018-03-02T12:23:10.819Z,51.53
2018-03-02T12:25:41.280Z,58.30
2018-03-02T12:28:11.141Z,60.17
2018-03-02T12:30:41.208Z,57.93
2018-03-02T12:33:12.436Z,69.47
2018-03-02T12:35:40.295Z,61.77
2018-03-02T12:38:08.032Z,59.47
2018-03-02T12:40:37.760Z,66.20
2018-03-02T12:43:10.707Z,59.40
2018-03-02T12:45:41.212Z,62.00
2018-03-02T12:48:09.849Z,49.63
2018-03-02T12:50:41.140Z,62.67
2018-03-02T12:53:11.189Z,66.63
2018-03-02T12:55:41.373Z,54.80
2018-03-02T12:58:13.193Z,58.20
2018-03-02T13:00:43.707Z,55.37
2018-03-02T13:03:11.442Z,58.80
2018-03-02T13:05:40.366Z,58.67
2018-03-02T13:08:12.221Z,63.57
2018-03-02T13:10:47.304Z,59.23
2018-03-02T13:13:14.846Z,57.07
2018-03-02T13:15:42.330Z,59.30
2018-03-02T13:18:20.187Z,70.60
2018-03-02T13:20:48.417Z,64.53
2018-03-02T13:23:16.782Z,69.10
2018-03-02T13:25:44.319Z,69.47
2018-03-02T13:31:09.594Z,64.87
2018-03-02T13:33:49.373Z,58.43
2018-03-02T13:36:17.609Z,63.17
2018-03-02T13:38:45.126Z,70.63
2018-03-02T13:41:40.724Z,63.67
2018-03-02T13:44:12.533Z,60.60
2018-03-02T13:46:42.243Z,71.43
2018-03-02T13:49:22.494Z,61.97
2018-03-02T13:51:50.750Z,57.37
2018-03-02T13:54:18.201Z,66.90
2018-03-02T13:57:04.769Z,66.77
2018-03-02T13:59:43.014Z,65.33
2018-03-02T14:02:22.401Z,62.17
2018-03-02T14:05:17.499Z,67.17
2018-03-02T14:07:47.132Z,68.33
2018-03-02T14:10:14.633Z,66.80
2018-03-02T14:12:43.560Z,80.10
2018-03-02T14:15:13.215Z,73.07
2018-03-02T14:17:44.422Z,72.03
2018-03-02T14:20:14.443Z,66.43
2018-03-02T14:22:43.746Z,67.70
2018-03-02T14:25:13.375Z,85.57
2018-03-02T14:27:43.749Z,66.73
2018-03-02T14:30:14.173Z,73.30
2018-03-02T14:32:43.862Z,83.33
2018-03-02T14:35:12.587Z,69.47
2018-03-02T14:37:40.069Z,75.70
2018-03-02T14:40:11.618Z,74.03
2018-03-02T14:42:43.232Z,75.77
2018-03-02T14:45:13.353Z,74.10
2018-03-02T14:47:44.734Z,73.07
2018-03-02T14:50:13.828Z,75.03
2018-03-02T14:52:42.493Z,81.50
2018-03-02T14:55:12.470Z,84.87
2018-03-02T14:57:51.736Z,83.90
2018-03-02T15:00:20.349Z,91.27
2018-03-02T15:02:47.841Z,97.90
2018-03-02T15:05:15.294Z,90.73
2018-03-02T15:07:42.814Z,94.20
2018-03-02T15:10:13.573Z,100.23
2018-03-02T15:12:43.738Z,98.97
2018-03-02T15:15:13.276Z,98.23
2018-03-02T15:17:46.742Z,99.30
2018-03-02T15:20:14.132Z,88.80
2018-03-02T15:22:42.777Z,97.40
2018-03-02T15:25:13.412Z,111.23
2018-03-02T15:27:42.612Z,99.10
2018-03-02T15:30:13.618Z,94.17
2018-03-02T15:32:46.089Z,104.27
2018-03-02T15:35:14.414Z,111.13
2018-03-02T15:40:43.317Z,91.67
2018-03-02T15:43:14.063Z,96.13
2018-03-02T15:51:45.240Z,97.57
2018-03-02T15:54:13.285Z,95.93
2018-03-02T15:56:45.307Z,104.57
2018-03-02T15:59:14.243Z,114.63
2018-03-02T16:01:44.133Z,124.83
2018-03-02T16:04:14.242Z,107.50
2018-03-02T16:06:44.144Z,117.93
2018-03-02T16:09:13.301Z,102.33
2018-03-02T16:11:43.061Z,119.07
2018-03-02T16:14:13.247Z,111.23
2018-03-02T16:16:43.149Z,117.50
2018-03-02T16:19:14.012Z,111.53
2018-03-02T16:21:44.864Z,85.13
2018-03-02T16:24:14.064Z,53.37
2018-03-02T16:26:44.159Z,30.50
2018-03-02T16:32:13.185Z,18.03
2018-03-02T16:34:42.194Z,13.50
2018-03-02T16:37:13.033Z,13.70
2018-03-02T16:39:42.259Z,9.40
2018-03-02T16:42:12.330Z,12.52
2018-03-02T16:44:42.226Z,8.70
2018-03-02T16:47:11.160Z,9.10
2018-03-02T16:49:41.240Z,9.17
2018-03-02T16:52:12.021Z,7.67
2018-03-02T16:54:43.153Z,7.83
2018-03-02T16:57:12.668Z,9.27
2018-03-02T16:59:41.945Z,11.47
2018-03-02T17:02:12.228Z,7.33
2018-03-02T17:04:41.321Z,12.23
2018-03-02T17:07:11.473Z,9.73
2018-03-02T17:09:41.114Z,8.70
2018-03-02T17:12:12.371Z,7.03
2018-03-02T17:14:42.132Z,5.57
2018-03-02T17:17:12.244Z,4.50
2018-03-02T17:19:43.545Z,12.10
2018-03-02T17:22:12.373Z,9.00
2018-03-02T17:24:42.277Z,10.93
2018-03-02T17:27:14.324Z,9.90
2018-03-02T17:29:44.595Z,8.43
2018-03-02T17:32:12.227Z,7.33
2018-03-02T17:34:44.454Z,12.43
2018-03-02T17:40:18.265Z,22.60
2018-03-02T17:42:49.748Z,17.80
2018-03-02T17:48:23.088Z,8.43
2018-03-02T17:50:50.626Z,10.43
2018-03-02T17:53:18.065Z,7.83
2018-03-02T17:59:16.378Z,8.13
2018-03-02T18:01:43.946Z,11.03
2018-03-02T18:04:15.524Z,10.90
2018-03-02T18:06:43.801Z,11.97
2018-03-02T18:09:14.156Z,9.60
2018-03-02T18:20:23.272Z,24.93
2018-03-02T18:22:50.745Z,9.23
2018-03-02T18:25:18.226Z,10.37
2018-03-02T18:27:46.049Z,10.63
2018-03-02T18:30:14.547Z,8.23
2018-03-02T18:32:41.995Z,15.87
2018-03-02T18:35:11.416Z,16.53
2018-03-02T18:37:39.786Z,11.63
2018-03-02T18:40:08.477Z,8.43
2018-03-02T18:42:39.384Z,14.60
2018-03-02T18:45:09.506Z,12.53
2018-03-02T18:47:37.348Z,17.40
2018-03-02T18:50:07.164Z,19.53
2018-03-02T18:52:36.710Z,16.30
2018-03-02T18:55:06.918Z,15.93
2018-03-02T18:57:38.094Z,12.67
2018-03-02T19:00:06.615Z,22.47
2018-03-02T19:02:37.221Z,18.23
2018-03-02T19:05:07.910Z,21.63
2018-03-02T19:07:37.427Z,21.50
2018-03-02T19:10:11.011Z,23.60
2018-03-02T19:12:39.296Z,9.03
2018-03-02T19:15:06.874Z,12.67
2018-03-02T19:17:36.143Z,23.23
2018-03-02T19:20:06.573Z,20.40
2018-03-02T19:22:39.344Z,18.10
2018-03-02T19:25:06.966Z,17.33
2018-03-02T19:27:36.404Z,18.50
2018-03-02T19:30:04.073Z,17.27
2018-03-02T19:32:33.204Z,13.97
2018-03-02T19:35:03.005Z,16.53
2018-03-02T19:37:39.373Z,17.37
2018-03-02T19:40:08.682Z,20.77
2018-03-02T19:42:39.271Z,29.83
2018-03-02T19:45:08.600Z,26.30
2018-03-02T19:47:38.241Z,17.73
2018-03-02T19:50:08.411Z,25.93
2018-03-02T19:52:43.282Z,20.30
2018-03-02T19:55:14.098Z,29.40
2018-03-02T19:57:42.291Z,17.33
2018-03-02T20:00:09.764Z,10.07
2018-03-02T20:02:38.348Z,11.57
2018-03-02T20:05:08.482Z,26.17
2018-03-02T20:07:38.228Z,24.07
2018-03-02T20:10:07.676Z,25.50
2018-03-02T20:12:36.257Z,17.73
2018-03-02T20:15:08.254Z,13.67
2018-03-02T20:17:37.120Z,15.83
2018-03-02T20:20:07.609Z,17.97
2018-03-02T20:22:37.035Z,10.70
2018-03-02T20:25:09.025Z,14.93
2018-03-02T20:27:38.634Z,25.73
2018-03-02T20:30:08.141Z,35.43
2018-03-02T20:32:38.437Z,18.47
2018-03-02T20:35:08.508Z,14.23
2018-03-02T20:37:38.244Z,16.43
2018-03-02T20:40:19.054Z,12.43
2018-03-02T20:42:46.866Z,16.00
2018-03-02T20:45:14.521Z,18.77
2018-03-02T20:47:41.977Z,13.40
2018-03-02T20:50:11.040Z,14.83
2018-03-02T20:52:40.744Z,22.23
2018-03-02T20:55:30.666Z,22.60
2018-03-02T20:58:16.652Z,24.13
2018-03-02T21:01:06.019Z,9.30
2018-03-02T21:03:41.716Z,29.73
2018-03-02T21:06:10.961Z,15.10
2018-03-02T21:08:40.921Z,14.60
2018-03-02T21:11:11.057Z,17.83
2018-03-02T21:13:40.784Z,21.43
2018-03-02T21:16:08.908Z,12.23
2018-03-02T21:18:37.713Z,10.37
2018-03-02T21:21:08.941Z,17.07
2018-03-02T21:23:40.782Z,14.73
2018-03-02T21:26:11.828Z,8.83
2018-03-02T21:28:41.987Z,13.17
2018-03-02T21:31:12.594Z,12.47
2018-03-02T21:33:40.045Z,19.40
2018-03-02T21:36:08.844Z,25.03
2018-03-02T21:41:42.240Z,14.87
2018-03-02T21:44:11.889Z,27.67
2018-03-02T21:46:39.461Z,41.17
2018-03-02T21:49:11.144Z,23.43
2018-03-02T21:51:43.276Z,20.10
2018-03-02T21:54:11.094Z,16.17
2018-03-02T21:56:38.551Z,12.43
2018-03-02T22:02:10.394Z,10.57
2018-03-02T22:04:41.199Z,12.40
2018-03-02T22:07:08.781Z,5.27
2018-03-02T22:09:40.770Z,6.93
2018-03-02T22:12:11.092Z,6.80
2018-03-02T22:14:41.076Z,10.63
2018-03-02T22:17:11.053Z,11.13
2018-03-02T22:19:39.342Z,10.13
2018-03-02T22:22:10.703Z,12.33
2018-03-02T22:24:42.170Z,7.13
2018-03-02T22:27:10.023Z,11.57
2018-03-02T22:29:49.446Z,11.97
2018-03-02T22:32:23.445Z,10.30
2018-03-02T22:34:50.902Z,10.67
2018-03-02T22:37:18.357Z,8.33
2018-03-02T22:39:46.581Z,14.70
2018-03-02T22:42:14.884Z,5.27
2018-03-02T22:44:42.354Z,17.53
2018-03-02T22:47:19.754Z,7.90
2018-03-02T22:49:47.965Z,6.30
2018-03-02T22:52:15.413Z,6.10
2018-03-02T22:54:42.861Z,11.23
2018-03-02T22:57:12.322Z,9.13
2018-03-02T22:59:42.313Z,6.60
2018-03-02T23:02:37.329Z,8.60
2018-03-02T23:05:10.177Z,20.53
2018-03-02T23:07:38.999Z,23.93
2018-03-02T23:10:10.650Z,12.93
2018-03-02T23:12:49.698Z,18.80
2018-03-02T23:15:17.145Z,12.97
2018-03-02T23:17:45.569Z,8.30
2018-03-02T23:20:13.034Z,8.73
2018-03-02T23:22:46.225Z,8.17
2018-03-02T23:25:13.683Z,13.73
2018-03-02T23:27:41.142Z,5.07
2018-03-02T23:30:10.209Z,9.60
2018-03-02T23:32:43.551Z,6.30
2018-03-02T23:35:11.766Z,14.67
2018-03-02T23:37:41.013Z,5.47
2018-03-02T23:40:11.353Z,26.57
2018-03-02T23:42:41.072Z,8.47
2018-03-02T23:45:10.899Z,10.40
2018-03-02T23:47:41.023Z,24.23
2018-03-02T23:50:10.908Z,35.50
2018-03-02T23:52:39.295Z,19.47
2018-03-02T23:55:10.057Z,26.23
2018-03-02T23:57:40.424Z,15.97
